N179MS KPUB-KGLS
Flight info
| Callsign | N179MS |
|---|---|
| Flight time | N/A |
| Altitude | 39000 |
| Route | DCT TBE DCT KA36Y DCT MQP DCT ELLVR KIDDZ5 |
| Aircraft | P180/L-SBDFGM3RWXYZ/L |
Departure
| Time | 2026-04-28 16:34 |
|---|---|
| Airport | Pueblo Memorial Airport (KPUB) |
Arrival
| Time | N/A |
|---|---|
| Airport | Scholes International At Galveston Airport (KGLS) |
| Time | Latitude | Longitude | Altitude | Speed | Heading |
|---|---|---|---|---|---|
| 2026-04-28 16:17 | 38.28364 | -104.49893 | 4648 ft | 0 kts | 179° |
| 2026-04-28 16:28 | 38.28354 | -104.49915 | 4648 ft | 6 kts | 294° |
| 2026-04-28 16:28 | 38.28386 | -104.49934 | 4649 ft | 8 kts | 353° |
| 2026-04-28 16:28 | 38.28477 | -104.49937 | 4653 ft | 7 kts | 359° |
| 2026-04-28 16:28 | 38.28492 | -104.49992 | 4653 ft | 10 kts | 269° |
| 2026-04-28 16:29 | 38.28524 | -104.50160 | 4657 ft | 9 kts | 284° |
| 2026-04-28 16:29 | 38.28540 | -104.50397 | 4659 ft | 16 kts | 275° |
| 2026-04-28 16:30 | 38.28552 | -104.50556 | 4659 ft | 19 kts | 275° |
| 2026-04-28 16:30 | 38.28562 | -104.50719 | 4659 ft | 18 kts | 275° |
| 2026-04-28 16:30 | 38.28572 | -104.50871 | 4662 ft | 16 kts | 275° |
| 2026-04-28 16:30 | 38.28589 | -104.50980 | 4664 ft | 8 kts | 322° |
| 2026-04-28 16:31 | 38.28629 | -104.50987 | 4665 ft | 0 kts | 359° |
| 2026-04-28 16:32 | 38.28639 | -104.50987 | 4666 ft | 3 kts | 358° |
| 2026-04-28 16:33 | 38.28683 | -104.50988 | 4667 ft | 9 kts | 0° |
| 2026-04-28 16:33 | 38.28717 | -104.50975 | 4667 ft | 7 kts | 71° |
| 2026-04-28 16:33 | 38.28727 | -104.50626 | 4666 ft | 82 kts | 86° |
| 2026-04-28 16:33 | 38.28744 | -104.49623 | 4904 ft | 130 kts | 92° |
| 2026-04-28 16:34 | 38.28715 | -104.48392 | 5335 ft | 153 kts | 90° |
| 2026-04-28 16:34 | 38.28769 | -104.47019 | 5925 ft | 160 kts | 88° |
| 2026-04-28 16:34 | 38.28816 | -104.45617 | 6574 ft | 162 kts | 88° |
| 2026-04-28 16:34 | 38.28852 | -104.44149 | 7162 ft | 174 kts | 88° |
| 2026-04-28 16:35 | 38.28508 | -104.42685 | 7953 ft | 181 kts | 128° |
| 2026-04-28 16:35 | 38.27428 | -104.41928 | 8733 ft | 188 kts | 172° |
| 2026-04-28 16:35 | 38.26137 | -104.41854 | 9519 ft | 191 kts | 178° |
| 2026-04-28 16:35 | 38.24818 | -104.41792 | 10304 ft | 194 kts | 178° |
| 2026-04-28 16:36 | 38.23473 | -104.41708 | 11103 ft | 196 kts | 178° |
| 2026-04-28 16:36 | 38.22131 | -104.41601 | 11901 ft | 197 kts | 178° |
| 2026-04-28 16:36 | 38.20770 | -104.41464 | 12680 ft | 200 kts | 177° |
| 2026-04-28 16:36 | 38.19436 | -104.41024 | 13417 ft | 205 kts | 157° |
| 2026-04-28 16:37 | 38.18188 | -104.40155 | 14154 ft | 209 kts | 149° |
| 2026-04-28 16:37 | 38.16976 | -104.39151 | 14883 ft | 213 kts | 147° |
| 2026-04-28 16:37 | 38.15752 | -104.38090 | 15614 ft | 216 kts | 147° |
| 2026-04-28 16:38 | 38.13256 | -104.35895 | 17045 ft | 224 kts | 147° |
| 2026-04-28 16:38 | 38.11980 | -104.34771 | 17748 ft | 227 kts | 147° |
| 2026-04-28 16:38 | 38.10693 | -104.33638 | 18438 ft | 231 kts | 147° |
| 2026-04-28 16:38 | 38.09363 | -104.32468 | 19126 ft | 234 kts | 147° |
| 2026-04-28 16:39 | 38.08017 | -104.31284 | 19814 ft | 238 kts | 147° |
| 2026-04-28 16:39 | 38.06664 | -104.30093 | 20484 ft | 241 kts | 147° |
| 2026-04-28 16:39 | 38.05289 | -104.28885 | 21146 ft | 245 kts | 147° |
| 2026-04-28 16:39 | 38.03885 | -104.27650 | 21801 ft | 248 kts | 147° |
| 2026-04-28 16:40 | 38.02478 | -104.26415 | 22442 ft | 251 kts | 148° |
| 2026-04-28 16:40 | 38.01031 | -104.25146 | 23083 ft | 255 kts | 148° |
| 2026-04-28 16:40 | 37.99574 | -104.23866 | 23709 ft | 258 kts | 148° |
| 2026-04-28 16:40 | 37.98108 | -104.22581 | 24323 ft | 262 kts | 148° |
| 2026-04-28 16:41 | 37.96595 | -104.21255 | 24934 ft | 265 kts | 148° |
| 2026-04-28 16:41 | 37.95096 | -104.19942 | 25530 ft | 268 kts | 148° |
| 2026-04-28 16:41 | 37.93548 | -104.18587 | 26134 ft | 271 kts | 148° |
| 2026-04-28 16:41 | 37.91992 | -104.17225 | 26706 ft | 275 kts | 149° |
| 2026-04-28 16:42 | 37.90417 | -104.15848 | 27285 ft | 278 kts | 149° |
| 2026-04-28 16:42 | 37.88831 | -104.14461 | 27842 ft | 281 kts | 149° |
| 2026-04-28 16:42 | 37.87226 | -104.13059 | 28383 ft | 284 kts | 149° |
| 2026-04-28 16:42 | 37.85606 | -104.11642 | 28917 ft | 287 kts | 149° |
| 2026-04-28 16:43 | 37.83962 | -104.10208 | 29438 ft | 290 kts | 149° |
| 2026-04-28 16:43 | 37.82282 | -104.08744 | 29954 ft | 294 kts | 149° |
| 2026-04-28 16:43 | 37.80605 | -104.07281 | 30467 ft | 296 kts | 149° |
| 2026-04-28 16:43 | 37.78916 | -104.05809 | 30966 ft | 299 kts | 149° |
| 2026-04-28 16:44 | 37.77529 | -104.04601 | 31359 ft | 301 kts | 150° |
| 2026-04-28 16:44 | 37.75790 | -104.03086 | 31839 ft | 304 kts | 150° |
| 2026-04-28 16:44 | 37.74039 | -104.01564 | 32322 ft | 307 kts | 149° |
| 2026-04-28 16:44 | 37.72279 | -104.00034 | 32781 ft | 310 kts | 150° |
| 2026-04-28 16:45 | 37.70516 | -103.98502 | 33237 ft | 312 kts | 150° |
| 2026-04-28 16:45 | 37.68716 | -103.96940 | 33683 ft | 315 kts | 149° |
| 2026-04-28 16:45 | 37.66905 | -103.95367 | 34124 ft | 317 kts | 150° |
| 2026-04-28 16:45 | 37.65102 | -103.93805 | 34557 ft | 319 kts | 151° |
| 2026-04-28 16:46 | 37.63261 | -103.92212 | 34988 ft | 322 kts | 149° |
| 2026-04-28 16:46 | 37.61413 | -103.90611 | 35387 ft | 324 kts | 150° |
| 2026-04-28 16:46 | 37.59554 | -103.89000 | 35806 ft | 326 kts | 150° |
| 2026-04-28 16:46 | 37.57710 | -103.87404 | 36204 ft | 328 kts | 150° |
| 2026-04-28 16:47 | 37.55809 | -103.85762 | 36586 ft | 331 kts | 149° |
| 2026-04-28 16:47 | 37.53918 | -103.84127 | 36975 ft | 332 kts | 149° |
| 2026-04-28 16:47 | 37.52008 | -103.82478 | 37335 ft | 335 kts | 150° |
| 2026-04-28 16:47 | 37.50087 | -103.80819 | 37685 ft | 338 kts | 150° |
| 2026-04-28 16:48 | 37.48150 | -103.79150 | 38041 ft | 340 kts | 151° |
| 2026-04-28 16:48 | 37.46200 | -103.77472 | 38369 ft | 343 kts | 149° |
| 2026-04-28 16:48 | 37.44231 | -103.75772 | 38709 ft | 345 kts | 150° |
| 2026-04-28 16:48 | 37.42255 | -103.74072 | 39028 ft | 347 kts | 150° |
| 2026-04-28 16:49 | 37.40258 | -103.72356 | 39098 ft | 358 kts | 150° |
| 2026-04-28 16:49 | 37.38177 | -103.70568 | 39110 ft | 369 kts | 150° |
| 2026-04-28 16:49 | 37.36036 | -103.68728 | 39105 ft | 375 kts | 149° |
| 2026-04-28 16:50 | 37.31780 | -103.65071 | 39086 ft | 366 kts | 150° |
| 2026-04-28 16:50 | 37.27673 | -103.61550 | 39084 ft | 353 kts | 150° |
| 2026-04-28 16:50 | 37.25701 | -103.59725 | 39078 ft | 353 kts | 139° |
| 2026-04-28 16:51 | 37.23981 | -103.57542 | 39093 ft | 350 kts | 136° |
| 2026-04-28 16:51 | 37.21350 | -103.54122 | 39098 ft | 345 kts | 136° |
| 2026-04-28 16:52 | 37.18059 | -103.49844 | 39104 ft | 339 kts | 137° |
| 2026-04-28 16:52 | 37.14807 | -103.45624 | 39111 ft | 334 kts | 137° |
| 2026-04-28 16:53 | 37.11863 | -103.41802 | 39114 ft | 330 kts | 137° |
| 2026-04-28 16:53 | 37.08684 | -103.37686 | 39113 ft | 327 kts | 136° |
| 2026-04-28 16:54 | 37.05546 | -103.33624 | 39108 ft | 326 kts | 137° |
| 2026-04-28 16:54 | 37.02405 | -103.29565 | 39103 ft | 323 kts | 138° |
| 2026-04-28 16:55 | 36.99287 | -103.25542 | 39107 ft | 321 kts | 139° |
| 2026-04-28 16:55 | 36.96207 | -103.21571 | 39108 ft | 320 kts | 139° |
| 2026-04-28 16:56 | 36.93119 | -103.17600 | 39112 ft | 318 kts | 141° |
| 2026-04-28 16:56 | 36.90046 | -103.13654 | 39109 ft | 318 kts | 142° |
| 2026-04-28 16:57 | 36.86964 | -103.09694 | 39107 ft | 317 kts | 139° |
| 2026-04-28 16:57 | 36.83881 | -103.05746 | 39111 ft | 323 kts | 139° |
| 2026-04-28 16:58 | 36.80702 | -103.01675 | 39112 ft | 333 kts | 139° |
| 2026-04-28 16:58 | 36.77454 | -102.97520 | 39112 ft | 341 kts | 141° |
| 2026-04-28 16:59 | 36.71348 | -102.89726 | 39112 ft | 352 kts | 139° |